This is the latest recevied weather packets stored in our database for station/object VA3JLF-1. If no packets are shown the sender has not sent any weather packets the latest 10 day(s).
| Time | Temp. | Humidity | Pressure | Rain* | Wind** | Luminosity | Snow |
|---|---|---|---|---|---|---|---|
| 1777338021 | 13.89° C | 55% | 1015.9 hPa | 0 mm | - | - | - |
| 1777337421 | 13.89° C | 56% | 1015.6 hPa | 0 mm | - | - | - |
| 1777336822 | 13.89° C | 58% | 1015.7 hPa | 0 mm | - | - | - |
| 1777336222 | 14.44° C | 58% | 1016 hPa | 0 mm | - | - | - |
| 1777335621 | 14.44° C | 57% | 1015.8 hPa | 0 mm | - | - | - |
| 1777335021 | 15° C | 56% | 1015.9 hPa | 0 mm | - | - | - |
| 1777334421 | 15.56° C | 55% | 1015.9 hPa | 0 mm | - | - | - |
| 1777333822 | 16.67° C | 52% | 1016 hPa | 0 mm | - | - | - |
| 1777333222 | 17.78° C | 48% | 1016.2 hPa | 0 mm | - | - | - |
| 1777332621 | 18.89° C | 43% | 1016.1 hPa | 0 mm | - | - | - |
| 1777332021 | 19.44° C | 43% | 1016.3 hPa | 0 mm | - | - | - |
| 1777331421 | 20° C | 41% | 1016.5 hPa | 0 mm | - | - | - |
| 1777330821 | 20° C | 40% | 1016.5 hPa | 0 mm | - | - | - |
| 1777330221 | 20.56° C | 40% | 1016.4 hPa | 0 mm | - | - | - |
| 1777329623 | 20.56° C | 39% | 1016.4 hPa | 0 mm | - | - | - |
| 1777329021 | 21.11° C | 42% | 1016.6 hPa | 0 mm | - | - | - |
| 1777328422 | 21.67° C | 37% | 1016.6 hPa | 0 mm | - | - | - |
| 1777327821 | 21.11° C | 38% | 1016.7 hPa | 0 mm | - | - | - |
| 1777327221 | 21.11° C | 39% | 1016.8 hPa | 0 mm | - | - | - |
| 1777326621 | 21.11° C | 37% | 1016.7 hPa | 0 mm | - | - | - |
| 1777326021 | 21.11° C | 37% | 1017 hPa | 0 mm | - | - | - |
| 1777325421 | 21.11° C | 39% | 1017.3 hPa | 0 mm | - | - | - |
| 1777324821 | 21.11° C | 37% | 1017 hPa | 0 mm | - | - | - |
| 1777324221 | 20.56° C | 37% | 1017.1 hPa | 0 mm | - | - | - |
| 1777323623 | 20.56° C | 35% | 1017.1 hPa | 0 mm | - | - | - |
* Rain latest hour (hover to see other rain measurements)
** Current wind speed in m/s (hover to see current wind gust speed)